sensor_id;sensor_type;location;lat;lon;timestamp;P1;durP1;ratioP1;P2;durP2;ratioP2
4933;SDS011;2482;49.154;8.254;2022-12-18T00:03:57;45.13;;;19.10;;
4933;SDS011;2482;49.154;8.254;2022-12-18T00:06:26;43.63;;;18.90;;
4933;SDS011;2482;49.154;8.254;2022-12-18T00:08:55;45.80;;;17.73;;
4933;SDS011;2482;49.154;8.254;2022-12-18T00:11:25;41.67;;;18.50;;
4933;SDS011;2482;49.154;8.254;2022-12-18T00:13:55;42.23;;;18.57;;
4933;SDS011;2482;49.154;8.254;2022-12-18T00:16:24;38.03;;;16.30;;
4933;SDS011;2482;49.154;8.254;2022-12-18T00:18:54;40.13;;;18.67;;
4933;SDS011;2482;49.154;8.254;2022-12-18T00:21:24;43.93;;;20.33;;
4933;SDS011;2482;49.154;8.254;2022-12-18T00:23:52;38.37;;;17.90;;
4933;SDS011;2482;49.154;8.254;2022-12-18T00:26:22;38.37;;;19.13;;
4933;SDS011;2482;49.154;8.254;2022-12-18T00:28:52;40.20;;;15.87;;
4933;SDS011;2482;49.154;8.254;2022-12-18T00:31:21;38.10;;;17.90;;
4933;SDS011;2482;49.154;8.254;2022-12-18T00:33:51;50.37;;;19.90;;
4933;SDS011;2482;49.154;8.254;2022-12-18T00:36:22;42.20;;;17.47;;
4933;SDS011;2482;49.154;8.254;2022-12-18T00:38:53;43.73;;;17.17;;
4933;SDS011;2482;49.154;8.254;2022-12-18T00:41:21;38.50;;;18.23;;
4933;SDS011;2482;49.154;8.254;2022-12-18T00:44:09;43.07;;;17.53;;
4933;SDS011;2482;49.154;8.254;2022-12-18T00:46:39;44.93;;;18.00;;
4933;SDS011;2482;49.154;8.254;2022-12-18T00:49:07;47.80;;;17.90;;
4933;SDS011;2482;49.154;8.254;2022-12-18T00:51:34;40.83;;;15.97;;
4933;SDS011;2482;49.154;8.254;2022-12-18T00:54:01;48.43;;;18.33;;
4933;SDS011;2482;49.154;8.254;2022-12-18T00:56:28;35.50;;;16.27;;
4933;SDS011;2482;49.154;8.254;2022-12-18T00:58:55;40.23;;;16.87;;
4933;SDS011;2482;49.154;8.254;2022-12-18T01:01:22;41.90;;;18.80;;
4933;SDS011;2482;49.154;8.254;2022-12-18T01:03:49;51.43;;;20.90;;
4933;SDS011;2482;49.154;8.254;2022-12-18T01:06:16;50.40;;;19.50;;
4933;SDS011;2482;49.154;8.254;2022-12-18T01:08:43;46.03;;;18.40;;
4933;SDS011;2482;49.154;8.254;2022-12-18T01:11:11;45.43;;;19.70;;
4933;SDS011;2482;49.154;8.254;2022-12-18T01:13:44;37.97;;;17.43;;
4933;SDS011;2482;49.154;8.254;2022-12-18T01:16:12;46.47;;;19.33;;
4933;SDS011;2482;49.154;8.254;2022-12-18T01:18:41;41.60;;;17.03;;
4933;SDS011;2482;49.154;8.254;2022-12-18T01:21:10;47.93;;;19.20;;
4933;SDS011;2482;49.154;8.254;2022-12-18T01:23:40;42.63;;;18.90;;
4933;SDS011;2482;49.154;8.254;2022-12-18T01:26:12;45.83;;;19.27;;
4933;SDS011;2482;49.154;8.254;2022-12-18T01:28:42;40.30;;;19.70;;
4933;SDS011;2482;49.154;8.254;2022-12-18T01:33:43;45.23;;;18.70;;
4933;SDS011;2482;49.154;8.254;2022-12-18T01:36:16;45.70;;;20.00;;
4933;SDS011;2482;49.154;8.254;2022-12-18T01:38:51;40.30;;;18.10;;
4933;SDS011;2482;49.154;8.254;2022-12-18T01:41:20;51.43;;;19.73;;
4933;SDS011;2482;49.154;8.254;2022-12-18T01:43:52;45.03;;;19.87;;
4933;SDS011;2482;49.154;8.254;2022-12-18T01:46:23;39.40;;;18.33;;
4933;SDS011;2482;49.154;8.254;2022-12-18T01:48:54;55.63;;;17.97;;
4933;SDS011;2482;49.154;8.254;2022-12-18T01:51:26;41.10;;;15.50;;
4933;SDS011;2482;49.154;8.254;2022-12-18T01:53:55;44.13;;;19.03;;
4933;SDS011;2482;49.154;8.254;2022-12-18T01:56:23;35.07;;;15.93;;
4933;SDS011;2482;49.154;8.254;2022-12-18T01:58:56;61.93;;;20.40;;
4933;SDS011;2482;49.154;8.254;2022-12-18T02:01:30;48.37;;;18.10;;
4933;SDS011;2482;49.154;8.254;2022-12-18T02:07:05;46.03;;;18.30;;
4933;SDS011;2482;49.154;8.254;2022-12-18T02:09:45;45.83;;;19.07;;
4933;SDS011;2482;49.154;8.254;2022-12-18T02:12:21;47.57;;;16.87;;
4933;SDS011;2482;49.154;8.254;2022-12-18T02:17:59;42.03;;;18.27;;
4933;SDS011;2482;49.154;8.254;2022-12-18T02:20:45;43.63;;;18.17;;
4933;SDS011;2482;49.154;8.254;2022-12-18T02:26:36;42.23;;;16.07;;
4933;SDS011;2482;49.154;8.254;2022-12-18T02:29:11;49.87;;;18.60;;
4933;SDS011;2482;49.154;8.254;2022-12-18T02:31:44;39.87;;;17.83;;
4933;SDS011;2482;49.154;8.254;2022-12-18T02:34:17;49.10;;;19.60;;
4933;SDS011;2482;49.154;8.254;2022-12-18T02:36:46;37.80;;;16.40;;
4933;SDS011;2482;49.154;8.254;2022-12-18T02:39:14;45.83;;;19.57;;
4933;SDS011;2482;49.154;8.254;2022-12-18T02:41:42;54.70;;;21.00;;
4933;SDS011;2482;49.154;8.254;2022-12-18T02:44:10;42.10;;;18.93;;
4933;SDS011;2482;49.154;8.254;2022-12-18T02:46:48;46.07;;;20.07;;
4933;SDS011;2482;49.154;8.254;2022-12-18T02:52:41;46.57;;;18.60;;
4933;SDS011;2482;49.154;8.254;2022-12-18T02:58:25;40.20;;;17.27;;
4933;SDS011;2482;49.154;8.254;2022-12-18T03:01:07;43.67;;;20.03;;
4933;SDS011;2482;49.154;8.254;2022-12-18T03:03:55;39.60;;;18.20;;
4933;SDS011;2482;49.154;8.254;2022-12-18T03:09:34;42.07;;;18.70;;
4933;SDS011;2482;49.154;8.254;2022-12-18T03:12:52;50.07;;;20.17;;
4933;SDS011;2482;49.154;8.254;2022-12-18T03:17:46;46.60;;;19.33;;
4933;SDS011;2482;49.154;8.254;2022-12-18T03:20:23;42.03;;;17.73;;
4933;SDS011;2482;49.154;8.254;2022-12-18T03:22:57;44.13;;;19.53;;
4933;SDS011;2482;49.154;8.254;2022-12-18T03:25:32;34.23;;;16.47;;
4933;SDS011;2482;49.154;8.254;2022-12-18T03:28:04;45.23;;;18.70;;
4933;SDS011;2482;49.154;8.254;2022-12-18T03:30:34;50.53;;;19.73;;
4933;SDS011;2482;49.154;8.254;2022-12-18T03:33:51;47.17;;;20.67;;
4933;SDS011;2482;49.154;8.254;2022-12-18T03:36:05;52.17;;;19.70;;
4933;SDS011;2482;49.154;8.254;2022-12-18T03:38:32;48.90;;;20.43;;
4933;SDS011;2482;49.154;8.254;2022-12-18T03:52:40;47.73;;;16.77;;
4933;SDS011;2482;49.154;8.254;2022-12-18T03:55:36;47.83;;;19.97;;
4933;SDS011;2482;49.154;8.254;2022-12-18T03:58:04;36.80;;;17.87;;
4933;SDS011;2482;49.154;8.254;2022-12-18T04:00:33;45.30;;;17.90;;
4933;SDS011;2482;49.154;8.254;2022-12-18T04:03:01;47.70;;;19.50;;
4933;SDS011;2482;49.154;8.254;2022-12-18T04:05:30;37.67;;;18.60;;
4933;SDS011;2482;49.154;8.254;2022-12-18T04:07:59;42.20;;;18.40;;
4933;SDS011;2482;49.154;8.254;2022-12-18T04:10:28;38.57;;;16.80;;
4933;SDS011;2482;49.154;8.254;2022-12-18T04:12:56;47.20;;;19.10;;
4933;SDS011;2482;49.154;8.254;2022-12-18T04:15:23;46.17;;;18.80;;
4933;SDS011;2482;49.154;8.254;2022-12-18T04:17:51;40.13;;;17.80;;
4933;SDS011;2482;49.154;8.254;2022-12-18T04:20:18;40.80;;;17.37;;
4933;SDS011;2482;49.154;8.254;2022-12-18T04:22:45;44.33;;;18.20;;
4933;SDS011;2482;49.154;8.254;2022-12-18T04:25:13;45.77;;;18.37;;
4933;SDS011;2482;49.154;8.254;2022-12-18T04:27:40;46.30;;;20.00;;
4933;SDS011;2482;49.154;8.254;2022-12-18T04:30:07;40.53;;;17.57;;
4933;SDS011;2482;49.154;8.254;2022-12-18T04:32:34;41.37;;;17.13;;
4933;SDS011;2482;49.154;8.254;2022-12-18T04:35:02;42.07;;;17.83;;
4933;SDS011;2482;49.154;8.254;2022-12-18T04:37:30;38.90;;;18.20;;
4933;SDS011;2482;49.154;8.254;2022-12-18T04:39:57;45.60;;;19.00;;
4933;SDS011;2482;49.154;8.254;2022-12-18T04:42:24;34.03;;;16.53;;
4933;SDS011;2482;49.154;8.254;2022-12-18T04:44:51;43.23;;;17.90;;
4933;SDS011;2482;49.154;8.254;2022-12-18T04:47:18;41.77;;;16.80;;
4933;SDS011;2482;49.154;8.254;2022-12-18T04:49:45;40.40;;;17.00;;
4933;SDS011;2482;49.154;8.254;2022-12-18T04:52:11;46.13;;;16.53;;
4933;SDS011;2482;49.154;8.254;2022-12-18T04:54:38;41.67;;;18.50;;
4933;SDS011;2482;49.154;8.254;2022-12-18T04:57:05;39.63;;;17.77;;
4933;SDS011;2482;49.154;8.254;2022-12-18T04:59:32;40.03;;;16.47;;
4933;SDS011;2482;49.154;8.254;2022-12-18T05:01:59;40.17;;;18.93;;
4933;SDS011;2482;49.154;8.254;2022-12-18T05:04:26;41.47;;;16.23;;
4933;SDS011;2482;49.154;8.254;2022-12-18T05:06:53;47.37;;;17.47;;
4933;SDS011;2482;49.154;8.254;2022-12-18T05:09:20;35.40;;;16.93;;
4933;SDS011;2482;49.154;8.254;2022-12-18T05:11:47;40.83;;;17.00;;
4933;SDS011;2482;49.154;8.254;2022-12-18T05:14:14;38.10;;;17.33;;
4933;SDS011;2482;49.154;8.254;2022-12-18T05:16:41;38.40;;;17.10;;
4933;SDS011;2482;49.154;8.254;2022-12-18T05:19:09;40.17;;;17.47;;
4933;SDS011;2482;49.154;8.254;2022-12-18T05:21:37;37.67;;;17.20;;
4933;SDS011;2482;49.154;8.254;2022-12-18T05:24:04;40.30;;;17.80;;
4933;SDS011;2482;49.154;8.254;2022-12-18T05:26:31;39.37;;;17.07;;
4933;SDS011;2482;49.154;8.254;2022-12-18T05:28:58;43.40;;;18.40;;
4933;SDS011;2482;49.154;8.254;2022-12-18T05:31:25;39.83;;;17.27;;
4933;SDS011;2482;49.154;8.254;2022-12-18T05:33:52;35.30;;;17.27;;
4933;SDS011;2482;49.154;8.254;2022-12-18T05:36:19;43.53;;;19.03;;
4933;SDS011;2482;49.154;8.254;2022-12-18T05:38:46;29.53;;;14.97;;
4933;SDS011;2482;49.154;8.254;2022-12-18T05:41:14;31.13;;;16.57;;
4933;SDS011;2482;49.154;8.254;2022-12-18T05:43:41;33.33;;;14.97;;
4933;SDS011;2482;49.154;8.254;2022-12-18T05:46:13;32.13;;;16.53;;
4933;SDS011;2482;49.154;8.254;2022-12-18T05:48:44;38.47;;;18.20;;
4933;SDS011;2482;49.154;8.254;2022-12-18T05:51:15;40.57;;;18.80;;
4933;SDS011;2482;49.154;8.254;2022-12-18T05:53:44;38.13;;;17.90;;
4933;SDS011;2482;49.154;8.254;2022-12-18T05:56:13;38.73;;;16.47;;
4933;SDS011;2482;49.154;8.254;2022-12-18T05:58:44;35.60;;;16.50;;
4933;SDS011;2482;49.154;8.254;2022-12-18T06:01:12;34.63;;;16.00;;
4933;SDS011;2482;49.154;8.254;2022-12-18T06:03:43;40.83;;;17.70;;
4933;SDS011;2482;49.154;8.254;2022-12-18T06:06:12;38.37;;;16.43;;
4933;SDS011;2482;49.154;8.254;2022-12-18T06:08:46;38.67;;;15.53;;
4933;SDS011;2482;49.154;8.254;2022-12-18T06:11:16;35.03;;;16.33;;
4933;SDS011;2482;49.154;8.254;2022-12-18T06:13:50;26.73;;;13.00;;
4933;SDS011;2482;49.154;8.254;2022-12-18T06:16:24;36.33;;;16.13;;
4933;SDS011;2482;49.154;8.254;2022-12-18T06:18:53;43.07;;;18.97;;
4933;SDS011;2482;49.154;8.254;2022-12-18T06:21:23;33.60;;;14.73;;
4933;SDS011;2482;49.154;8.254;2022-12-18T06:23:50;29.87;;;14.93;;
4933;SDS011;2482;49.154;8.254;2022-12-18T06:26:17;35.20;;;15.83;;
4933;SDS011;2482;49.154;8.254;2022-12-18T06:28:51;37.20;;;16.43;;
4933;SDS011;2482;49.154;8.254;2022-12-18T06:31:18;32.93;;;14.20;;
4933;SDS011;2482;49.154;8.254;2022-12-18T06:33:45;38.30;;;16.30;;
4933;SDS011;2482;49.154;8.254;2022-12-18T06:36:12;38.43;;;15.77;;
4933;SDS011;2482;49.154;8.254;2022-12-18T06:38:41;39.83;;;17.30;;
4933;SDS011;2482;49.154;8.254;2022-12-18T06:41:10;33.37;;;16.47;;
4933;SDS011;2482;49.154;8.254;2022-12-18T06:43:43;33.17;;;15.50;;
4933;SDS011;2482;49.154;8.254;2022-12-18T06:46:10;42.33;;;16.30;;
4933;SDS011;2482;49.154;8.254;2022-12-18T06:48:38;40.37;;;16.40;;
4933;SDS011;2482;49.154;8.254;2022-12-18T06:51:05;37.33;;;16.90;;
4933;SDS011;2482;49.154;8.254;2022-12-18T06:53:33;32.57;;;15.70;;
4933;SDS011;2482;49.154;8.254;2022-12-18T06:56:04;38.80;;;15.90;;
4933;SDS011;2482;49.154;8.254;2022-12-18T06:58:36;37.83;;;15.97;;
4933;SDS011;2482;49.154;8.254;2022-12-18T07:01:05;37.57;;;16.90;;
4933;SDS011;2482;49.154;8.254;2022-12-18T07:03:35;30.00;;;15.60;;
4933;SDS011;2482;49.154;8.254;2022-12-18T07:06:04;32.00;;;15.63;;
4933;SDS011;2482;49.154;8.254;2022-12-18T07:08:31;35.43;;;17.30;;
4933;SDS011;2482;49.154;8.254;2022-12-18T07:10:59;32.70;;;16.33;;
4933;SDS011;2482;49.154;8.254;2022-12-18T07:13:29;33.83;;;15.43;;
4933;SDS011;2482;49.154;8.254;2022-12-18T07:16:04;36.27;;;15.47;;
4933;SDS011;2482;49.154;8.254;2022-12-18T07:18:44;27.90;;;15.00;;
4933;SDS011;2482;49.154;8.254;2022-12-18T07:21:15;32.20;;;15.43;;
4933;SDS011;2482;49.154;8.254;2022-12-18T07:23:45;30.93;;;15.67;;
4933;SDS011;2482;49.154;8.254;2022-12-18T07:26:15;36.03;;;16.27;;
4933;SDS011;2482;49.154;8.254;2022-12-18T07:28:45;35.10;;;15.30;;
4933;SDS011;2482;49.154;8.254;2022-12-18T07:31:13;38.67;;;15.47;;
4933;SDS011;2482;49.154;8.254;2022-12-18T07:33:44;37.70;;;17.07;;
4933;SDS011;2482;49.154;8.254;2022-12-18T07:36:11;35.27;;;17.37;;
4933;SDS011;2482;49.154;8.254;2022-12-18T07:38:39;35.00;;;15.80;;
4933;SDS011;2482;49.154;8.254;2022-12-18T07:41:10;33.07;;;15.67;;
4933;SDS011;2482;49.154;8.254;2022-12-18T07:43:40;37.27;;;16.40;;
4933;SDS011;2482;49.154;8.254;2022-12-18T07:46:08;35.43;;;17.37;;
4933;SDS011;2482;49.154;8.254;2022-12-18T07:48:39;33.17;;;15.40;;
4933;SDS011;2482;49.154;8.254;2022-12-18T07:51:08;34.33;;;16.30;;
4933;SDS011;2482;49.154;8.254;2022-12-18T07:53:36;30.77;;;14.67;;
4933;SDS011;2482;49.154;8.254;2022-12-18T07:56:05;26.53;;;14.20;;
4933;SDS011;2482;49.154;8.254;2022-12-18T07:58:55;28.83;;;15.67;;
4933;SDS011;2482;49.154;8.254;2022-12-18T08:01:23;26.73;;;15.40;;
4933;SDS011;2482;49.154;8.254;2022-12-18T08:03:51;29.20;;;15.33;;
4933;SDS011;2482;49.154;8.254;2022-12-18T08:06:18;33.67;;;17.67;;
4933;SDS011;2482;49.154;8.254;2022-12-18T08:08:53;40.80;;;17.97;;
4933;SDS011;2482;49.154;8.254;2022-12-18T08:11:22;32.60;;;15.73;;
4933;SDS011;2482;49.154;8.254;2022-12-18T08:13:50;35.80;;;15.80;;
4933;SDS011;2482;49.154;8.254;2022-12-18T08:16:18;37.10;;;17.43;;
4933;SDS011;2482;49.154;8.254;2022-12-18T08:18:46;29.93;;;15.63;;
4933;SDS011;2482;49.154;8.254;2022-12-18T08:21:18;35.70;;;19.30;;
4933;SDS011;2482;49.154;8.254;2022-12-18T08:23:52;33.33;;;16.50;;
4933;SDS011;2482;49.154;8.254;2022-12-18T08:26:22;41.00;;;20.33;;
4933;SDS011;2482;49.154;8.254;2022-12-18T08:28:50;44.27;;;20.60;;
4933;SDS011;2482;49.154;8.254;2022-12-18T08:31:18;37.43;;;20.10;;
4933;SDS011;2482;49.154;8.254;2022-12-18T08:33:48;48.63;;;21.13;;
4933;SDS011;2482;49.154;8.254;2022-12-18T08:36:17;41.80;;;21.33;;
4933;SDS011;2482;49.154;8.254;2022-12-18T08:38:45;43.67;;;21.27;;
4933;SDS011;2482;49.154;8.254;2022-12-18T08:41:14;38.80;;;20.33;;
4933;SDS011;2482;49.154;8.254;2022-12-18T08:43:42;41.87;;;20.47;;
4933;SDS011;2482;49.154;8.254;2022-12-18T08:46:32;40.83;;;19.87;;
4933;SDS011;2482;49.154;8.254;2022-12-18T08:49:02;40.37;;;19.93;;
4933;SDS011;2482;49.154;8.254;2022-12-18T08:51:30;34.60;;;19.93;;
4933;SDS011;2482;49.154;8.254;2022-12-18T08:53:57;40.97;;;19.23;;
4933;SDS011;2482;49.154;8.254;2022-12-18T08:56:24;36.23;;;19.67;;
4933;SDS011;2482;49.154;8.254;2022-12-18T08:58:52;37.23;;;19.47;;
4933;SDS011;2482;49.154;8.254;2022-12-18T09:01:20;37.57;;;18.47;;
4933;SDS011;2482;49.154;8.254;2022-12-18T09:03:49;39.10;;;19.53;;
4933;SDS011;2482;49.154;8.254;2022-12-18T09:06:17;41.77;;;19.57;;
4933;SDS011;2482;49.154;8.254;2022-12-18T09:08:46;37.67;;;20.07;;
4933;SDS011;2482;49.154;8.254;2022-12-18T09:11:14;38.40;;;18.97;;
4933;SDS011;2482;49.154;8.254;2022-12-18T09:13:50;39.47;;;20.60;;
4933;SDS011;2482;49.154;8.254;2022-12-18T09:16:18;39.30;;;20.27;;
4933;SDS011;2482;49.154;8.254;2022-12-18T09:18:46;38.57;;;18.90;;
4933;SDS011;2482;49.154;8.254;2022-12-18T09:21:14;39.80;;;18.77;;
4933;SDS011;2482;49.154;8.254;2022-12-18T09:23:50;36.67;;;20.23;;
4933;SDS011;2482;49.154;8.254;2022-12-18T09:26:18;46.43;;;20.30;;
4933;SDS011;2482;49.154;8.254;2022-12-18T09:28:45;35.47;;;19.10;;
4933;SDS011;2482;49.154;8.254;2022-12-18T09:31:13;36.93;;;18.43;;
4933;SDS011;2482;49.154;8.254;2022-12-18T09:33:40;37.00;;;19.27;;
4933;SDS011;2482;49.154;8.254;2022-12-18T09:36:09;37.50;;;18.40;;
4933;SDS011;2482;49.154;8.254;2022-12-18T09:38:38;39.20;;;19.60;;
4933;SDS011;2482;49.154;8.254;2022-12-18T09:47:35;41.43;;;21.50;;
4933;SDS011;2482;49.154;8.254;2022-12-18T09:50:00;40.03;;;20.33;;
4933;SDS011;2482;49.154;8.254;2022-12-18T09:52:41;43.10;;;22.53;;
4933;SDS011;2482;49.154;8.254;2022-12-18T10:00:58;38.30;;;20.87;;
4933;SDS011;2482;49.154;8.254;2022-12-18T10:03:25;40.77;;;21.80;;
4933;SDS011;2482;49.154;8.254;2022-12-18T10:06:13;39.23;;;20.30;;
4933;SDS011;2482;49.154;8.254;2022-12-18T10:14:49;39.27;;;19.73;;
4933;SDS011;2482;49.154;8.254;2022-12-18T10:27:16;35.60;;;18.73;;
4933;SDS011;2482;49.154;8.254;2022-12-18T10:29:47;46.10;;;19.97;;
4933;SDS011;2482;49.154;8.254;2022-12-18T10:32:22;43.00;;;21.77;;
4933;SDS011;2482;49.154;8.254;2022-12-18T10:34:56;38.57;;;19.70;;
4933;SDS011;2482;49.154;8.254;2022-12-18T10:37:26;39.67;;;20.47;;
4933;SDS011;2482;49.154;8.254;2022-12-18T10:42:51;31.60;;;17.57;;
4933;SDS011;2482;49.154;8.254;2022-12-18T10:45:31;32.50;;;18.50;;
4933;SDS011;2482;49.154;8.254;2022-12-18T10:47:58;36.67;;;18.90;;
4933;SDS011;2482;49.154;8.254;2022-12-18T10:53:20;40.87;;;19.87;;
4933;SDS011;2482;49.154;8.254;2022-12-18T10:55:53;39.77;;;19.57;;
4933;SDS011;2482;49.154;8.254;2022-12-18T10:58:25;37.77;;;19.57;;
4933;SDS011;2482;49.154;8.254;2022-12-18T11:01:02;46.17;;;20.03;;
4933;SDS011;2482;49.154;8.254;2022-12-18T11:03:42;39.60;;;19.90;;
4933;SDS011;2482;49.154;8.254;2022-12-18T11:06:28;37.13;;;19.57;;
4933;SDS011;2482;49.154;8.254;2022-12-18T11:09:06;39.40;;;20.70;;
4933;SDS011;2482;49.154;8.254;2022-12-18T11:11:51;41.50;;;20.93;;
4933;SDS011;2482;49.154;8.254;2022-12-18T11:14:23;44.03;;;20.30;;
4933;SDS011;2482;49.154;8.254;2022-12-18T11:17:23;47.37;;;21.70;;
4933;SDS011;2482;49.154;8.254;2022-12-18T11:19:59;44.77;;;20.20;;
4933;SDS011;2482;49.154;8.254;2022-12-18T11:22:33;46.57;;;21.37;;
4933;SDS011;2482;49.154;8.254;2022-12-18T11:28:05;44.80;;;19.47;;
4933;SDS011;2482;49.154;8.254;2022-12-18T11:31:20;39.83;;;19.47;;
4933;SDS011;2482;49.154;8.254;2022-12-18T11:36:54;41.47;;;19.87;;
4933;SDS011;2482;49.154;8.254;2022-12-18T11:39:31;47.83;;;22.70;;
4933;SDS011;2482;49.154;8.254;2022-12-18T11:42:14;42.83;;;20.10;;
4933;SDS011;2482;49.154;8.254;2022-12-18T11:45:18;36.30;;;19.60;;
4933;SDS011;2482;49.154;8.254;2022-12-18T11:50:44;46.00;;;20.83;;
4933;SDS011;2482;49.154;8.254;2022-12-18T11:53:19;42.63;;;19.50;;
4933;SDS011;2482;49.154;8.254;2022-12-18T11:56:04;42.17;;;20.97;;
4933;SDS011;2482;49.154;8.254;2022-12-18T12:02:42;46.70;;;21.33;;
4933;SDS011;2482;49.154;8.254;2022-12-18T12:08:26;42.00;;;20.53;;
4933;SDS011;2482;49.154;8.254;2022-12-18T12:14:17;42.40;;;21.17;;
4933;SDS011;2482;49.154;8.254;2022-12-18T12:25:52;41.67;;;20.23;;
4933;SDS011;2482;49.154;8.254;2022-12-18T12:31:43;42.47;;;20.43;;
4933;SDS011;2482;49.154;8.254;2022-12-18T12:40:18;44.93;;;19.60;;
4933;SDS011;2482;49.154;8.254;2022-12-18T12:43:52;42.03;;;21.70;;
4933;SDS011;2482;49.154;8.254;2022-12-18T12:46:17;47.30;;;23.90;;
4933;SDS011;2482;49.154;8.254;2022-12-18T12:49:12;36.33;;;19.93;;
4933;SDS011;2482;49.154;8.254;2022-12-18T12:52:14;42.17;;;20.37;;
4933;SDS011;2482;49.154;8.254;2022-12-18T12:55:12;41.27;;;20.67;;
4933;SDS011;2482;49.154;8.254;2022-12-18T12:57:56;43.97;;;20.13;;
4933;SDS011;2482;49.154;8.254;2022-12-18T13:00:50;38.30;;;19.27;;
4933;SDS011;2482;49.154;8.254;2022-12-18T13:03:26;43.03;;;20.40;;
4933;SDS011;2482;49.154;8.254;2022-12-18T13:05:59;41.97;;;20.07;;
4933;SDS011;2482;49.154;8.254;2022-12-18T13:08:55;39.67;;;20.80;;
4933;SDS011;2482;49.154;8.254;2022-12-18T13:14:35;45.47;;;20.80;;
4933;SDS011;2482;49.154;8.254;2022-12-18T13:24:54;35.57;;;19.27;;
4933;SDS011;2482;49.154;8.254;2022-12-18T13:35:50;43.43;;;20.80;;
4933;SDS011;2482;49.154;8.254;2022-12-18T13:38:21;38.60;;;20.20;;
4933;SDS011;2482;49.154;8.254;2022-12-18T13:41:01;40.60;;;21.13;;
4933;SDS011;2482;49.154;8.254;2022-12-18T13:43:52;36.00;;;19.40;;
4933;SDS011;2482;49.154;8.254;2022-12-18T13:46:28;43.17;;;21.00;;
4933;SDS011;2482;49.154;8.254;2022-12-18T13:51:44;39.97;;;19.83;;
4933;SDS011;2482;49.154;8.254;2022-12-18T13:54:33;46.90;;;21.40;;
4933;SDS011;2482;49.154;8.254;2022-12-18T14:02:58;43.23;;;21.20;;
4933;SDS011;2482;49.154;8.254;2022-12-18T14:05:29;41.10;;;20.43;;
4933;SDS011;2482;49.154;8.254;2022-12-18T14:08:08;38.90;;;20.50;;
4933;SDS011;2482;49.154;8.254;2022-12-18T14:10:42;44.20;;;19.40;;
4933;SDS011;2482;49.154;8.254;2022-12-18T14:13:37;39.10;;;19.83;;
4933;SDS011;2482;49.154;8.254;2022-12-18T14:16:04;39.00;;;19.57;;
4933;SDS011;2482;49.154;8.254;2022-12-18T14:18:44;44.10;;;21.63;;
4933;SDS011;2482;49.154;8.254;2022-12-18T14:21:31;39.17;;;19.90;;
4933;SDS011;2482;49.154;8.254;2022-12-18T14:26:45;41.23;;;19.60;;
4933;SDS011;2482;49.154;8.254;2022-12-18T14:32:06;38.70;;;20.07;;
4933;SDS011;2482;49.154;8.254;2022-12-18T14:34:49;40.07;;;19.77;;
4933;SDS011;2482;49.154;8.254;2022-12-18T14:37:20;39.53;;;20.70;;
4933;SDS011;2482;49.154;8.254;2022-12-18T14:39:54;36.23;;;18.77;;
4933;SDS011;2482;49.154;8.254;2022-12-18T14:42:36;40.07;;;20.73;;
4933;SDS011;2482;49.154;8.254;2022-12-18T14:48:08;37.00;;;19.40;;
4933;SDS011;2482;49.154;8.254;2022-12-18T14:50:40;40.77;;;20.40;;
4933;SDS011;2482;49.154;8.254;2022-12-18T14:53:21;44.10;;;21.40;;
4933;SDS011;2482;49.154;8.254;2022-12-18T14:55:58;36.93;;;19.10;;
4933;SDS011;2482;49.154;8.254;2022-12-18T14:58:25;37.67;;;19.63;;
4933;SDS011;2482;49.154;8.254;2022-12-18T15:00:54;37.50;;;19.63;;
4933;SDS011;2482;49.154;8.254;2022-12-18T15:03:22;38.67;;;18.43;;
4933;SDS011;2482;49.154;8.254;2022-12-18T15:05:50;36.00;;;19.67;;
4933;SDS011;2482;49.154;8.254;2022-12-18T15:08:30;30.13;;;18.10;;
4933;SDS011;2482;49.154;8.254;2022-12-18T15:11:02;34.50;;;18.73;;
4933;SDS011;2482;49.154;8.254;2022-12-18T15:13:52;37.23;;;18.80;;
4933;SDS011;2482;49.154;8.254;2022-12-18T15:16:20;39.10;;;20.23;;
4933;SDS011;2482;49.154;8.254;2022-12-18T15:18:47;36.37;;;18.50;;
4933;SDS011;2482;49.154;8.254;2022-12-18T15:21:18;36.80;;;19.37;;
4933;SDS011;2482;49.154;8.254;2022-12-18T15:23:48;37.87;;;20.10;;
4933;SDS011;2482;49.154;8.254;2022-12-18T15:26:18;36.67;;;19.00;;
4933;SDS011;2482;49.154;8.254;2022-12-18T15:28:51;44.40;;;21.10;;
4933;SDS011;2482;49.154;8.254;2022-12-18T15:31:28;38.20;;;19.70;;
4933;SDS011;2482;49.154;8.254;2022-12-18T15:36:25;38.47;;;19.87;;
4933;SDS011;2482;49.154;8.254;2022-12-18T15:38:54;36.50;;;20.10;;
4933;SDS011;2482;49.154;8.254;2022-12-18T15:41:30;38.83;;;21.03;;
4933;SDS011;2482;49.154;8.254;2022-12-18T15:44:01;39.43;;;22.53;;
4933;SDS011;2482;49.154;8.254;2022-12-18T15:46:29;42.90;;;20.97;;
4933;SDS011;2482;49.154;8.254;2022-12-18T15:48:57;42.80;;;23.03;;
4933;SDS011;2482;49.154;8.254;2022-12-18T15:51:31;42.97;;;21.50;;
4933;SDS011;2482;49.154;8.254;2022-12-18T15:54:02;43.37;;;22.87;;
4933;SDS011;2482;49.154;8.254;2022-12-18T15:56:32;42.10;;;22.00;;
4933;SDS011;2482;49.154;8.254;2022-12-18T15:59:18;40.53;;;22.47;;
4933;SDS011;2482;49.154;8.254;2022-12-18T16:01:48;43.43;;;21.80;;
4933;SDS011;2482;49.154;8.254;2022-12-18T16:04:20;39.53;;;22.40;;
4933;SDS011;2482;49.154;8.254;2022-12-18T16:06:48;46.27;;;23.03;;
4933;SDS011;2482;49.154;8.254;2022-12-18T16:09:36;42.17;;;22.90;;
4933;SDS011;2482;49.154;8.254;2022-12-18T16:12:03;40.90;;;22.27;;
4933;SDS011;2482;49.154;8.254;2022-12-18T16:14:31;42.57;;;21.07;;
4933;SDS011;2482;49.154;8.254;2022-12-18T16:17:03;43.43;;;23.47;;
4933;SDS011;2482;49.154;8.254;2022-12-18T16:19:36;44.30;;;22.20;;
4933;SDS011;2482;49.154;8.254;2022-12-18T16:22:03;42.27;;;24.40;;
4933;SDS011;2482;49.154;8.254;2022-12-18T16:24:32;40.23;;;22.13;;
4933;SDS011;2482;49.154;8.254;2022-12-18T16:27:02;48.60;;;23.20;;
4933;SDS011;2482;49.154;8.254;2022-12-18T16:29:29;46.73;;;24.67;;
4933;SDS011;2482;49.154;8.254;2022-12-18T16:31:56;47.97;;;24.27;;
4933;SDS011;2482;49.154;8.254;2022-12-18T16:34:32;42.73;;;23.00;;
4933;SDS011;2482;49.154;8.254;2022-12-18T16:37:05;46.30;;;22.83;;
4933;SDS011;2482;49.154;8.254;2022-12-18T16:39:34;41.93;;;23.10;;
4933;SDS011;2482;49.154;8.254;2022-12-18T16:42:03;51.80;;;23.40;;
4933;SDS011;2482;49.154;8.254;2022-12-18T16:44:40;43.43;;;21.63;;
4933;SDS011;2482;49.154;8.254;2022-12-18T16:47:08;47.17;;;23.20;;
4933;SDS011;2482;49.154;8.254;2022-12-18T16:49:40;40.53;;;22.23;;
4933;SDS011;2482;49.154;8.254;2022-12-18T16:52:10;38.07;;;21.07;;
4933;SDS011;2482;49.154;8.254;2022-12-18T16:54:37;44.30;;;23.37;;
4933;SDS011;2482;49.154;8.254;2022-12-18T16:57:04;45.93;;;23.00;;
4933;SDS011;2482;49.154;8.254;2022-12-18T16:59:31;38.20;;;21.57;;
4933;SDS011;2482;49.154;8.254;2022-12-18T17:01:59;36.37;;;20.80;;
4933;SDS011;2482;49.154;8.254;2022-12-18T17:04:27;42.90;;;22.47;;
4933;SDS011;2482;49.154;8.254;2022-12-18T17:06:54;40.53;;;22.20;;
4933;SDS011;2482;49.154;8.254;2022-12-18T17:09:21;50.80;;;23.27;;
4933;SDS011;2482;49.154;8.254;2022-12-18T17:11:51;41.80;;;22.03;;
4933;SDS011;2482;49.154;8.254;2022-12-18T17:14:20;38.47;;;21.73;;
4933;SDS011;2482;49.154;8.254;2022-12-18T17:16:50;37.00;;;20.07;;
4933;SDS011;2482;49.154;8.254;2022-12-18T17:19:38;43.07;;;22.30;;
4933;SDS011;2482;49.154;8.254;2022-12-18T17:22:05;48.70;;;22.50;;
4933;SDS011;2482;49.154;8.254;2022-12-18T17:24:33;44.00;;;21.70;;
4933;SDS011;2482;49.154;8.254;2022-12-18T17:27:01;39.90;;;20.90;;
4933;SDS011;2482;49.154;8.254;2022-12-18T17:29:29;40.33;;;20.90;;
4933;SDS011;2482;49.154;8.254;2022-12-18T17:31:56;39.70;;;20.80;;
4933;SDS011;2482;49.154;8.254;2022-12-18T17:34:26;39.03;;;20.60;;
4933;SDS011;2482;49.154;8.254;2022-12-18T17:36:54;37.10;;;20.27;;
4933;SDS011;2482;49.154;8.254;2022-12-18T17:39:21;42.70;;;21.20;;
4933;SDS011;2482;49.154;8.254;2022-12-18T17:41:48;39.83;;;20.70;;
4933;SDS011;2482;49.154;8.254;2022-12-18T17:44:15;42.97;;;21.93;;
4933;SDS011;2482;49.154;8.254;2022-12-18T17:46:43;46.17;;;21.63;;